sensor_id;sensor_type;location;lat;lon;timestamp;pressure;altitude;pressure_sealevel;temperature;humidity
7832;BME280;3961;42.058;25.586;2023-03-18T00:01:56;62917.81;;;6.26;96.27
7832;BME280;3961;42.058;25.586;2023-03-18T00:04:22;62932.09;;;6.43;95.32
7832;BME280;3961;42.058;25.586;2023-03-18T00:06:49;62950.00;;;6.54;95.39
7832;BME280;3961;42.058;25.586;2023-03-18T00:09:14;62947.25;;;6.59;94.74
7832;BME280;3961;42.058;25.586;2023-03-18T00:11:41;62941.97;;;6.47;95.15
7832;BME280;3961;42.058;25.586;2023-03-18T00:14:06;62938.75;;;6.47;95.11
7832;BME280;3961;42.058;25.586;2023-03-18T00:16:33;62906.22;;;6.20;95.25
7832;BME280;3961;42.058;25.586;2023-03-18T00:19:00;62924.69;;;6.32;93.53
7832;BME280;3961;42.058;25.586;2023-03-18T00:21:27;62917.00;;;6.23;95.20
7832;BME280;3961;42.058;25.586;2023-03-18T00:23:54;62892.88;;;6.01;96.62
7832;BME280;3961;42.058;25.586;2023-03-18T00:26:25;62875.53;;;5.91;96.44
7832;BME280;3961;42.058;25.586;2023-03-18T00:28:52;62862.56;;;5.82;96.38
7832;BME280;3961;42.058;25.586;2023-03-18T00:31:19;62849.66;;;5.68;97.91
7832;BME280;3961;42.058;25.586;2023-03-18T00:33:45;62874.94;;;5.90;97.66
7832;BME280;3961;42.058;25.586;2023-03-18T00:36:12;62864.59;;;5.81;99.17
7832;BME280;3961;42.058;25.586;2023-03-18T00:38:42;62865.44;;;5.84;99.49
7832;BME280;3961;42.058;25.586;2023-03-18T00:41:08;62853.13;;;5.71;99.97
7832;BME280;3961;42.058;25.586;2023-03-18T00:43:40;62865.75;;;5.82;99.87
7832;BME280;3961;42.058;25.586;2023-03-18T00:46:34;62887.94;;;5.99;99.02
7832;BME280;3961;42.058;25.586;2023-03-18T00:49:03;62896.31;;;6.04;99.37
7832;BME280;3961;42.058;25.586;2023-03-18T00:51:31;62873.31;;;5.84;99.20
7832;BME280;3961;42.058;25.586;2023-03-18T00:53:59;62852.63;;;5.66;100.00
7832;BME280;3961;42.058;25.586;2023-03-18T00:56:28;62842.53;;;5.59;100.00
7832;BME280;3961;42.058;25.586;2023-03-18T00:58:55;62855.75;;;5.71;100.00
7832;BME280;3961;42.058;25.586;2023-03-18T01:01:22;62867.13;;;5.86;100.00
7832;BME280;3961;42.058;25.586;2023-03-18T01:03:48;62868.63;;;5.85;100.00
7832;BME280;3961;42.058;25.586;2023-03-18T01:06:17;62866.09;;;5.80;100.00
7832;BME280;3961;42.058;25.586;2023-03-18T01:08:43;62875.25;;;5.88;100.00
7832;BME280;3961;42.058;25.586;2023-03-18T01:11:08;62853.44;;;5.69;100.00
7832;BME280;3961;42.058;25.586;2023-03-18T01:13:34;62843.09;;;5.60;100.00
7832;BME280;3961;42.058;25.586;2023-03-18T01:16:00;62841.06;;;5.60;98.40
7832;BME280;3961;42.058;25.586;2023-03-18T01:18:28;62841.97;;;5.59;97.65
7832;BME280;3961;42.058;25.586;2023-03-18T01:20:54;62840.47;;;5.60;95.79
7832;BME280;3961;42.058;25.586;2023-03-18T01:23:20;62823.25;;;5.45;95.04
7832;BME280;3961;42.058;25.586;2023-03-18T01:25:45;62817.75;;;5.42;97.22
7832;BME280;3961;42.058;25.586;2023-03-18T01:28:11;62823.84;;;5.45;97.14
7832;BME280;3961;42.058;25.586;2023-03-18T01:30:38;62826.72;;;5.48;95.72
7832;BME280;3961;42.058;25.586;2023-03-18T01:33:05;62805.78;;;5.27;95.71
7832;BME280;3961;42.058;25.586;2023-03-18T01:35:33;62823.59;;;5.43;95.38
7832;BME280;3961;42.058;25.586;2023-03-18T01:38:00;62813.84;;;5.34;95.40
7832;BME280;3961;42.058;25.586;2023-03-18T01:40:27;62815.88;;;5.33;95.44
7832;BME280;3961;42.058;25.586;2023-03-18T01:43:03;62795.94;;;5.23;95.87
7832;BME280;3961;42.058;25.586;2023-03-18T01:45:30;62795.16;;;5.20;95.69
7832;BME280;3961;42.058;25.586;2023-03-18T01:47:56;62781.84;;;5.13;95.96
7832;BME280;3961;42.058;25.586;2023-03-18T01:50:29;62780.53;;;5.04;96.14
7832;BME280;3961;42.058;25.586;2023-03-18T01:53:09;62773.56;;;5.03;96.54
7832;BME280;3961;42.058;25.586;2023-03-18T01:55:36;62776.78;;;5.03;96.76
7832;BME280;3961;42.058;25.586;2023-03-18T01:58:09;62762.41;;;4.91;97.02
7832;BME280;3961;42.058;25.586;2023-03-18T02:00:40;62747.28;;;4.75;97.74
7832;BME280;3961;42.058;25.586;2023-03-18T02:03:09;62729.16;;;4.61;99.07
7832;BME280;3961;42.058;25.586;2023-03-18T02:05:34;62742.44;;;4.68;98.91
7832;BME280;3961;42.058;25.586;2023-03-18T02:08:01;62741.19;;;4.72;97.97
7832;BME280;3961;42.058;25.586;2023-03-18T02:10:29;62767.00;;;4.95;97.81
7832;BME280;3961;42.058;25.586;2023-03-18T02:13:02;62770.13;;;5.00;97.75
7832;BME280;3961;42.058;25.586;2023-03-18T02:15:30;62784.00;;;5.07;96.54
7832;BME280;3961;42.058;25.586;2023-03-18T02:18:27;62775.63;;;5.02;96.34
7832;BME280;3961;42.058;25.586;2023-03-18T02:26:55;62739.25;;;4.68;96.80
7832;BME280;3961;42.058;25.586;2023-03-18T02:29:22;62739.72;;;4.73;96.47
7832;BME280;3961;42.058;25.586;2023-03-18T02:31:51;62747.50;;;4.78;95.36
7832;BME280;3961;42.058;25.586;2023-03-18T02:34:17;62738.56;;;4.72;95.25
7832;BME280;3961;42.058;25.586;2023-03-18T02:36:43;62728.56;;;4.61;95.61
7832;BME280;3961;42.058;25.586;2023-03-18T02:39:13;62738.66;;;4.67;95.49
7832;BME280;3961;42.058;25.586;2023-03-18T02:41:39;62724.09;;;4.52;96.38
7832;BME280;3961;42.058;25.586;2023-03-18T02:44:05;62725.47;;;4.56;96.35
7832;BME280;3961;42.058;25.586;2023-03-18T02:49:11;62742.44;;;4.68;96.95
7832;BME280;3961;42.058;25.586;2023-03-18T02:51:37;62713.09;;;4.47;98.19
7832;BME280;3961;42.058;25.586;2023-03-18T02:54:13;62701.63;;;4.37;98.75
7832;BME280;3961;42.058;25.586;2023-03-18T02:56:40;62680.75;;;4.16;99.98
7832;BME280;3961;42.058;25.586;2023-03-18T02:59:07;62681.31;;;4.17;100.00
7832;BME280;3961;42.058;25.586;2023-03-18T03:01:34;62654.63;;;3.95;100.00
7832;BME280;3961;42.058;25.586;2023-03-18T03:04:00;62668.97;;;4.08;100.00
7832;BME280;3961;42.058;25.586;2023-03-18T03:06:26;62711.72;;;4.44;99.81
7832;BME280;3961;42.058;25.586;2023-03-18T03:08:51;62709.41;;;4.42;98.14
7832;BME280;3961;42.058;25.586;2023-03-18T03:11:17;62688.44;;;4.25;98.73
7832;BME280;3961;42.058;25.586;2023-03-18T03:13:43;62672.41;;;4.11;98.43
7832;BME280;3961;42.058;25.586;2023-03-18T03:16:11;62637.19;;;3.78;99.80
7832;BME280;3961;42.058;25.586;2023-03-18T03:18:37;62668.97;;;4.08;98.76
7832;BME280;3961;42.058;25.586;2023-03-18T03:21:03;62662.66;;;4.02;98.76
7832;BME280;3961;42.058;25.586;2023-03-18T03:23:29;62648.34;;;3.90;99.97
7832;BME280;3961;42.058;25.586;2023-03-18T03:25:55;62678.72;;;4.17;99.23
7832;BME280;3961;42.058;25.586;2023-03-18T03:28:22;62682.38;;;4.22;98.82
7832;BME280;3961;42.058;25.586;2023-03-18T03:30:47;62698.75;;;4.34;98.05
7832;BME280;3961;42.058;25.586;2023-03-18T03:33:13;62690.81;;;4.23;98.17
7832;BME280;3961;42.058;25.586;2023-03-18T03:35:40;62649.47;;;3.91;98.97
7832;BME280;3961;42.058;25.586;2023-03-18T03:38:06;62636.28;;;3.79;100.00
7832;BME280;3961;42.058;25.586;2023-03-18T03:40:32;62649.47;;;3.91;100.00
7832;BME280;3961;42.058;25.586;2023-03-18T03:42:58;62662.97;;;4.00;100.00
7832;BME280;3961;42.058;25.586;2023-03-18T03:45:24;62670.19;;;4.04;100.00
7832;BME280;3961;42.058;25.586;2023-03-18T03:47:50;62662.41;;;4.00;100.00
7832;BME280;3961;42.058;25.586;2023-03-18T03:50:16;62655.19;;;3.96;100.00
7832;BME280;3961;42.058;25.586;2023-03-18T03:52:42;62642.94;;;3.83;100.00
7832;BME280;3961;42.058;25.586;2023-03-18T03:55:10;62663.78;;;4.03;100.00
7832;BME280;3961;42.058;25.586;2023-03-18T03:57:36;62657.81;;;3.96;99.59
7832;BME280;3961;42.058;25.586;2023-03-18T04:00:08;62622.88;;;3.65;100.00
7832;BME280;3961;42.058;25.586;2023-03-18T04:02:38;62605.38;;;3.52;100.00
7832;BME280;3961;42.058;25.586;2023-03-18T04:05:04;62611.31;;;3.59;100.00
7832;BME280;3961;42.058;25.586;2023-03-18T04:07:30;62636.63;;;3.77;100.00
7832;BME280;3961;42.058;25.586;2023-03-18T04:09:55;62634.25;;;3.80;100.00
7832;BME280;3961;42.058;25.586;2023-03-18T04:12:21;62592.84;;;3.36;100.00
7832;BME280;3961;42.058;25.586;2023-03-18T04:14:47;62597.66;;;3.43;100.00
7832;BME280;3961;42.058;25.586;2023-03-18T04:17:12;62607.66;;;3.54;100.00
7832;BME280;3961;42.058;25.586;2023-03-18T04:19:38;62608.81;;;3.55;100.00
7832;BME280;3961;42.058;25.586;2023-03-18T04:22:04;62556.34;;;3.11;100.00
7832;BME280;3961;42.058;25.586;2023-03-18T04:24:30;62561.50;;;3.15;100.00
7832;BME280;3961;42.058;25.586;2023-03-18T04:26:56;62552.59;;;3.10;100.00
7832;BME280;3961;42.058;25.586;2023-03-18T04:29:22;62557.25;;;3.09;100.00
7832;BME280;3961;42.058;25.586;2023-03-18T04:31:48;62585.06;;;3.31;100.00
7832;BME280;3961;42.058;25.586;2023-03-18T04:34:13;62597.44;;;3.40;100.00
7832;BME280;3961;42.058;25.586;2023-03-18T04:36:39;62589.06;;;3.35;100.00
7832;BME280;3961;42.058;25.586;2023-03-18T04:39:04;62589.88;;;3.38;100.00
7832;BME280;3961;42.058;25.586;2023-03-18T04:41:30;62598.81;;;3.44;100.00
7832;BME280;3961;42.058;25.586;2023-03-18T04:43:56;62614.28;;;3.57;100.00
7832;BME280;3961;42.058;25.586;2023-03-18T04:46:22;62613.94;;;3.59;100.00
7832;BME280;3961;42.058;25.586;2023-03-18T04:48:48;62618.19;;;3.65;100.00
7832;BME280;3961;42.058;25.586;2023-03-18T04:51:13;62638.09;;;3.76;100.00
7832;BME280;3961;42.058;25.586;2023-03-18T04:53:39;62653.47;;;3.94;100.00
7832;BME280;3961;42.058;25.586;2023-03-18T04:56:06;62653.97;;;3.99;100.00
7832;BME280;3961;42.058;25.586;2023-03-18T04:58:33;62663.31;;;3.98;100.00
7832;BME280;3961;42.058;25.586;2023-03-18T05:00:58;62680.75;;;4.16;100.00
7832;BME280;3961;42.058;25.586;2023-03-18T05:03:24;62704.34;;;4.32;100.00
7832;BME280;3961;42.058;25.586;2023-03-18T05:05:49;62708.59;;;4.38;100.00
7832;BME280;3961;42.058;25.586;2023-03-18T05:08:15;62698.19;;;4.34;100.00
7832;BME280;3961;42.058;25.586;2023-03-18T05:10:41;62716.88;;;4.48;100.00
7832;BME280;3961;42.058;25.586;2023-03-18T05:13:07;62697.63;;;4.33;100.00
7832;BME280;3961;42.058;25.586;2023-03-18T05:15:34;62708.28;;;4.41;100.00
7832;BME280;3961;42.058;25.586;2023-03-18T05:18:00;62693.94;;;4.28;100.00
7832;BME280;3961;42.058;25.586;2023-03-18T05:20:26;62714.25;;;4.48;100.00
7832;BME280;3961;42.058;25.586;2023-03-18T05:22:52;62732.59;;;4.64;100.00
7832;BME280;3961;42.058;25.586;2023-03-18T05:25:19;62743.75;;;4.77;100.00
7832;BME280;3961;42.058;25.586;2023-03-18T05:27:46;62754.97;;;4.84;100.00
7832;BME280;3961;42.058;25.586;2023-03-18T05:30:12;62748.09;;;4.78;100.00
7832;BME280;3961;42.058;25.586;2023-03-18T05:32:40;62778.81;;;5.03;100.00
7832;BME280;3961;42.058;25.586;2023-03-18T05:35:07;62691.06;;;4.25;100.00
7832;BME280;3961;42.058;25.586;2023-03-18T05:37:33;62715.72;;;4.47;100.00
7832;BME280;3961;42.058;25.586;2023-03-18T05:39:59;62730.28;;;4.62;100.00
7832;BME280;3961;42.058;25.586;2023-03-18T05:42:26;62731.44;;;4.63;100.00
7832;BME280;3961;42.058;25.586;2023-03-18T05:44:52;62747.75;;;4.80;100.00
7832;BME280;3961;42.058;25.586;2023-03-18T05:47:18;62727.66;;;4.62;100.00
7832;BME280;3961;42.058;25.586;2023-03-18T05:49:44;62743.25;;;4.71;100.00
7832;BME280;3961;42.058;25.586;2023-03-18T05:52:10;62792.03;;;5.15;100.00
7832;BME280;3961;42.058;25.586;2023-03-18T05:54:36;62834.84;;;5.50;99.21
7832;BME280;3961;42.058;25.586;2023-03-18T05:57:02;62848.84;;;5.65;98.62
7832;BME280;3961;42.058;25.586;2023-03-18T05:59:27;62835.88;;;5.56;97.59
7832;BME280;3961;42.058;25.586;2023-03-18T06:01:54;62844.25;;;5.61;98.18
7832;BME280;3961;42.058;25.586;2023-03-18T06:04:20;62865.84;;;5.78;98.66
7832;BME280;3961;42.058;25.586;2023-03-18T06:06:45;62862.66;;;5.77;98.18
7832;BME280;3961;42.058;25.586;2023-03-18T06:09:13;62879.56;;;5.94;96.12
7832;BME280;3961;42.058;25.586;2023-03-18T06:11:39;62879.56;;;5.94;97.71
7832;BME280;3961;42.058;25.586;2023-03-18T06:14:06;62905.19;;;6.15;95.62
7832;BME280;3961;42.058;25.586;2023-03-18T06:16:32;62913.22;;;6.22;96.11
7832;BME280;3961;42.058;25.586;2023-03-18T06:18:59;62961.81;;;6.62;95.16
7832;BME280;3961;42.058;25.586;2023-03-18T06:21:25;62979.91;;;6.81;93.77
7832;BME280;3961;42.058;25.586;2023-03-18T06:23:52;62989.41;;;6.87;93.21
7832;BME280;3961;42.058;25.586;2023-03-18T06:26:18;63006.59;;;7.06;92.03
7832;BME280;3961;42.058;25.586;2023-03-18T06:28:44;63033.03;;;7.30;90.77
7832;BME280;3961;42.058;25.586;2023-03-18T06:31:10;63024.75;;;7.20;88.79
7832;BME280;3961;42.058;25.586;2023-03-18T06:33:36;63061.56;;;7.53;88.99
7832;BME280;3961;42.058;25.586;2023-03-18T06:36:03;63066.41;;;7.59;87.74
7832;BME280;3961;42.058;25.586;2023-03-18T06:38:29;63063.53;;;7.57;86.56
7832;BME280;3961;42.058;25.586;2023-03-18T06:40:56;63116.50;;;8.03;86.05
7832;BME280;3961;42.058;25.586;2023-03-18T06:43:22;63119.72;;;8.04;84.96
7832;BME280;3961;42.058;25.586;2023-03-18T06:45:47;63105.91;;;7.92;84.18
7832;BME280;3961;42.058;25.586;2023-03-18T06:48:13;63155.13;;;8.37;82.40
7832;BME280;3961;42.058;25.586;2023-03-18T06:50:39;63117.41;;;8.02;82.44
7832;BME280;3961;42.058;25.586;2023-03-18T06:53:06;63165.00;;;8.41;81.22
7832;BME280;3961;42.058;25.586;2023-03-18T06:55:32;63194.88;;;8.72;80.43
7832;BME280;3961;42.058;25.586;2023-03-18T06:57:58;63183.59;;;8.65;78.21
7832;BME280;3961;42.058;25.586;2023-03-18T07:00:24;63213.06;;;8.86;78.28
7832;BME280;3961;42.058;25.586;2023-03-18T07:02:50;63198.09;;;8.73;77.54
7832;BME280;3961;42.058;25.586;2023-03-18T07:05:17;63174.47;;;8.52;77.78
7832;BME280;3961;42.058;25.586;2023-03-18T07:07:43;63186.22;;;8.65;77.33
7832;BME280;3961;42.058;25.586;2023-03-18T07:10:16;63230.38;;;9.01;76.54
7832;BME280;3961;42.058;25.586;2023-03-18T07:12:42;63203.25;;;8.77;75.48
7832;BME280;3961;42.058;25.586;2023-03-18T07:15:08;63213.31;;;8.89;73.92
7832;BME280;3961;42.058;25.586;2023-03-18T07:17:35;63202.34;;;8.79;74.09
7832;BME280;3961;42.058;25.586;2023-03-18T07:20:01;63189.09;;;8.67;75.05
7832;BME280;3961;42.058;25.586;2023-03-18T07:22:30;63192.34;;;8.68;73.81
7832;BME280;3961;42.058;25.586;2023-03-18T07:24:56;63206.38;;;8.83;74.24
7832;BME280;3961;42.058;25.586;2023-03-18T07:27:21;63208.34;;;8.87;76.04
7832;BME280;3961;42.058;25.586;2023-03-18T07:29:48;63215.38;;;8.88;77.59
7832;BME280;3961;42.058;25.586;2023-03-18T07:32:13;63258.84;;;9.29;76.94
7832;BME280;3961;42.058;25.586;2023-03-18T07:34:39;63275.00;;;9.43;76.49
7832;BME280;3961;42.058;25.586;2023-03-18T07:37:04;63253.19;;;9.19;77.93
7832;BME280;3961;42.058;25.586;2023-03-18T07:39:30;63226.91;;;8.98;75.87
7832;BME280;3961;42.058;25.586;2023-03-18T07:41:56;63149.44;;;8.28;76.53
7832;BME280;3961;42.058;25.586;2023-03-18T07:44:22;63153.16;;;8.33;73.46
7832;BME280;3961;42.058;25.586;2023-03-18T07:46:48;63140.69;;;8.25;72.94
7832;BME280;3961;42.058;25.586;2023-03-18T07:49:13;63166.75;;;8.43;73.66
7832;BME280;3961;42.058;25.586;2023-03-18T07:51:39;63145.63;;;8.27;73.74
7832;BME280;3961;42.058;25.586;2023-03-18T07:54:05;63094.94;;;7.82;77.54
7832;BME280;3961;42.058;25.586;2023-03-18T07:56:30;63101.28;;;7.88;78.93
7832;BME280;3961;42.058;25.586;2023-03-18T07:58:56;63099.81;;;7.89;79.12
7832;BME280;3961;42.058;25.586;2023-03-18T08:01:22;63102.19;;;7.86;79.60
7832;BME280;3961;42.058;25.586;2023-03-18T08:03:48;63111.66;;;7.97;77.40
7832;BME280;3961;42.058;25.586;2023-03-18T08:06:14;63104.41;;;7.93;76.73
7832;BME280;3961;42.058;25.586;2023-03-18T08:08:40;63112.47;;;8.00;76.70
7832;BME280;3961;42.058;25.586;2023-03-18T08:11:06;63158.44;;;8.33;77.27
7832;BME280;3961;42.058;25.586;2023-03-18T08:13:34;63100.97;;;7.90;74.59
7832;BME280;3961;42.058;25.586;2023-03-18T08:16:00;63128.94;;;8.12;75.25
7832;BME280;3961;42.058;25.586;2023-03-18T08:18:25;63119.97;;;8.06;71.27
7832;BME280;3961;42.058;25.586;2023-03-18T08:20:51;63164.09;;;8.43;69.92
7832;BME280;3961;42.058;25.586;2023-03-18T08:23:17;63162.72;;;8.39;68.70
7832;BME280;3961;42.058;25.586;2023-03-18T08:25:46;63156.94;;;8.34;66.76
7832;BME280;3961;42.058;25.586;2023-03-18T08:28:12;63159.50;;;8.39;68.65
7832;BME280;3961;42.058;25.586;2023-03-18T08:30:38;63165.25;;;8.44;69.62
7832;BME280;3961;42.058;25.586;2023-03-18T08:33:03;63174.22;;;8.50;67.34
7832;BME280;3961;42.058;25.586;2023-03-18T08:35:29;63181.94;;;8.59;67.82
7832;BME280;3961;42.058;25.586;2023-03-18T08:37:55;63179.97;;;8.55;69.65
7832;BME280;3961;42.058;25.586;2023-03-18T08:40:21;63163.19;;;8.45;70.49
7832;BME280;3961;42.058;25.586;2023-03-18T08:42:46;63194.31;;;8.72;70.12
7832;BME280;3961;42.058;25.586;2023-03-18T08:45:12;63212.97;;;8.91;70.35
7832;BME280;3961;42.058;25.586;2023-03-18T08:47:38;63198.91;;;8.76;71.05
7832;BME280;3961;42.058;25.586;2023-03-18T08:50:04;63193.72;;;8.71;71.50
7832;BME280;3961;42.058;25.586;2023-03-18T08:52:30;63198.91;;;8.76;71.67
7832;BME280;3961;42.058;25.586;2023-03-18T08:54:56;63185.75;;;8.60;69.61
7832;BME280;3961;42.058;25.586;2023-03-18T08:57:22;63155.69;;;8.38;70.17
7832;BME280;3961;42.058;25.586;2023-03-18T08:59:49;63160.66;;;8.40;71.18
7832;BME280;3961;42.058;25.586;2023-03-18T09:02:15;63164.91;;;8.46;70.46
7832;BME280;3961;42.058;25.586;2023-03-18T09:04:41;63152.81;;;8.35;68.98
7832;BME280;3961;42.058;25.586;2023-03-18T09:07:08;63145.88;;;8.29;70.76
7832;BME280;3961;42.058;25.586;2023-03-18T09:09:33;63154.31;;;8.34;69.75
7832;BME280;3961;42.058;25.586;2023-03-18T09:11:59;63130.06;;;8.13;69.74
7832;BME280;3961;42.058;25.586;2023-03-18T09:14:25;63114.78;;;8.02;70.42
7832;BME280;3961;42.058;25.586;2023-03-18T09:16:52;63125.16;;;8.11;70.64
7832;BME280;3961;42.058;25.586;2023-03-18T09:19:18;63122.28;;;8.08;68.86
7832;BME280;3961;42.058;25.586;2023-03-18T09:21:44;63128.94;;;8.12;70.27
7832;BME280;3961;42.058;25.586;2023-03-18T09:24:09;63129.75;;;8.15;68.22
7832;BME280;3961;42.058;25.586;2023-03-18T09:26:35;63137.56;;;8.20;69.56
7832;BME280;3961;42.058;25.586;2023-03-18T09:29:03;63114.19;;;8.01;72.67
7832;BME280;3961;42.058;25.586;2023-03-18T09:31:28;63135.75;;;8.23;73.79
7832;BME280;3961;42.058;25.586;2023-03-18T09:33:57;63132.38;;;8.15;72.99
7832;BME280;3961;42.058;25.586;2023-03-18T09:36:23;63149.09;;;8.30;73.99
7832;BME280;3961;42.058;25.586;2023-03-18T09:38:48;63159.81;;;8.37;73.39
7832;BME280;3961;42.058;25.586;2023-03-18T09:49:36;63163.97;;;8.48;71.35
7832;BME280;3961;42.058;25.586;2023-03-18T09:57:38;63238.22;;;9.06;69.64
7832;BME280;3961;42.058;25.586;2023-03-18T10:03:05;63256.66;;;9.22;67.32
7832;BME280;3961;42.058;25.586;2023-03-18T10:05:43;63250.19;;;9.21;66.81
7832;BME280;3961;42.058;25.586;2023-03-18T10:08:17;63235.81;;;9.08;65.72
7832;BME280;3961;42.058;25.586;2023-03-18T10:10:46;63251.13;;;9.20;65.40
7832;BME280;3961;42.058;25.586;2023-03-18T10:13:32;63269.34;;;9.33;65.83
7832;BME280;3961;42.058;25.586;2023-03-18T10:16:03;63253.66;;;9.24;61.75
7832;BME280;3961;42.058;25.586;2023-03-18T10:18:35;63230.03;;;9.03;59.81
7832;BME280;3961;42.058;25.586;2023-03-18T10:21:34;63226.34;;;8.98;59.56
7832;BME280;3961;42.058;25.586;2023-03-18T10:24:30;63211.00;;;8.87;59.20
7832;BME280;3961;42.058;25.586;2023-03-18T10:27:20;63216.28;;;8.87;58.21
7832;BME280;3961;42.058;25.586;2023-03-18T10:32:46;63213.22;;;8.93;58.35
7832;BME280;3961;42.058;25.586;2023-03-18T10:40:33;63266.59;;;9.38;60.28
7832;BME280;3961;42.058;25.586;2023-03-18T10:43:01;63287.09;;;9.54;59.22
7832;BME280;3961;42.058;25.586;2023-03-18T10:45:29;63250.78;;;9.22;59.57
7832;BME280;3961;42.058;25.586;2023-03-18T10:48:05;63285.47;;;9.48;59.44
7832;BME280;3961;42.058;25.586;2023-03-18T10:50:37;63288.84;;;9.55;58.74
7832;BME280;3961;42.058;25.586;2023-03-18T10:55:56;63369.41;;;10.24;58.29
7832;BME280;3961;42.058;25.586;2023-03-18T10:58:23;63380.97;;;10.34;57.63
7832;BME280;3961;42.058;25.586;2023-03-18T11:00:48;63398.03;;;10.47;57.27
7832;BME280;3961;42.058;25.586;2023-03-18T11:03:25;63375.19;;;10.29;57.91
7832;BME280;3961;42.058;25.586;2023-03-18T11:05:53;63359.81;;;10.18;58.11
7832;BME280;3961;42.058;25.586;2023-03-18T11:08:36;63349.78;;;10.06;57.64
7832;BME280;3961;42.058;25.586;2023-03-18T11:11:29;63370.47;;;10.29;57.45
7832;BME280;3961;42.058;25.586;2023-03-18T11:14:04;63401.16;;;10.52;57.29
7832;BME280;3961;42.058;25.586;2023-03-18T11:16:47;63409.84;;;10.59;56.81
7832;BME280;3961;42.058;25.586;2023-03-18T11:22:03;63460.09;;;11.03;53.55
7832;BME280;3961;42.058;25.586;2023-03-18T11:24:30;63462.41;;;11.05;54.20
7832;BME280;3961;42.058;25.586;2023-03-18T11:29:40;63455.13;;;11.01;54.05
7832;BME280;3961;42.058;25.586;2023-03-18T11:32:22;63441.59;;;10.87;54.03
7832;BME280;3961;42.058;25.586;2023-03-18T11:34:56;63453.16;;;10.97;54.33
7832;BME280;3961;42.058;25.586;2023-03-18T11:37:40;63456.06;;;11.00;53.56
7832;BME280;3961;42.058;25.586;2023-03-18T11:40:25;63443.22;;;10.93;53.97
7832;BME280;3961;42.058;25.586;2023-03-18T11:43:00;63474.44;;;11.21;54.30
7832;BME280;3961;42.058;25.586;2023-03-18T11:48:16;63495.00;;;11.36;53.19
7832;BME280;3961;42.058;25.586;2023-03-18T11:51:12;63511.19;;;11.51;53.05
7832;BME280;3961;42.058;25.586;2023-03-18T11:56:19;63549.13;;;11.82;52.18
7832;BME280;3961;42.058;25.586;2023-03-18T12:04:58;63544.25;;;11.75;52.08
7832;BME280;3961;42.058;25.586;2023-03-18T12:12:46;63468.06;;;11.15;50.66
7832;BME280;3961;42.058;25.586;2023-03-18T12:18:01;63450.03;;;10.92;51.17
7832;BME280;3961;42.058;25.586;2023-03-18T12:20:44;63460.31;;;11.06;51.28
7832;BME280;3961;42.058;25.586;2023-03-18T12:26:07;63492.47;;;11.32;52.33
7832;BME280;3961;42.058;25.586;2023-03-18T12:40:00;63572.84;;;12.02;48.76
7832;BME280;3961;42.058;25.586;2023-03-18T12:45:33;63568.69;;;12.03;47.06
7832;BME280;3961;42.058;25.586;2023-03-18T12:48:08;63613.00;;;12.40;47.45
7832;BME280;3961;42.058;25.586;2023-03-18T12:50:57;63650.97;;;12.71;46.33
7832;BME280;3961;42.058;25.586;2023-03-18T12:53:30;63680.50;;;12.97;46.20
7832;BME280;3961;42.058;25.586;2023-03-18T12:56:00;63604.34;;;12.32;43.98
7832;BME280;3961;42.058;25.586;2023-03-18T12:58:31;63599.34;;;12.30;45.04
7832;BME280;3961;42.058;25.586;2023-03-18T13:01:21;63652.13;;;12.72;44.55
7832;BME280;3961;42.058;25.586;2023-03-18T13:04:11;63611.38;;;12.34;44.94
7832;BME280;3961;42.058;25.586;2023-03-18T13:06:41;63663.94;;;12.85;43.62
7832;BME280;3961;42.058;25.586;2023-03-18T13:09:34;63675.06;;;12.90;43.63
7832;BME280;3961;42.058;25.586;2023-03-18T13:17:19;63657.56;;;12.79;43.27
7832;BME280;3961;42.058;25.586;2023-03-18T13:19:47;63688.84;;;13.06;42.99
7832;BME280;3961;42.058;25.586;2023-03-18T13:22:35;63707.50;;;13.18;42.20
7832;BME280;3961;42.058;25.586;2023-03-18T13:25:13;63618.56;;;12.42;42.86
7832;BME280;3961;42.058;25.586;2023-03-18T13:30:56;63704.63;;;13.16;43.13
7832;BME280;3961;42.058;25.586;2023-03-18T13:33:34;63699.94;;;13.11;42.30
7832;BME280;3961;42.058;25.586;2023-03-18T13:36:06;63638.72;;;12.65;42.11
7832;BME280;3961;42.058;25.586;2023-03-18T13:44:43;63688.94;;;13.02;42.04
7832;BME280;3961;42.058;25.586;2023-03-18T13:47:17;63650.63;;;12.73;42.41
7832;BME280;3961;42.058;25.586;2023-03-18T13:49:44;63668.91;;;12.87;42.59
7832;BME280;3961;42.058;25.586;2023-03-18T13:52:42;63672.28;;;12.94;42.78
7832;BME280;3961;42.058;25.586;2023-03-18T13:55:24;63685.69;;;13.01;42.94
7832;BME280;3961;42.058;25.586;2023-03-18T13:58:07;63705.66;;;13.21;41.50
7832;BME280;3961;42.058;25.586;2023-03-18T14:00:41;63709.13;;;13.24;40.93
7832;BME280;3961;42.058;25.586;2023-03-18T14:03:17;63695.22;;;13.12;41.51
7832;BME280;3961;42.058;25.586;2023-03-18T14:05:44;63724.53;;;13.35;41.44
7832;BME280;3961;42.058;25.586;2023-03-18T14:16:11;63713.78;;;13.28;40.65
7832;BME280;3961;42.058;25.586;2023-03-18T14:18:38;63736.47;;;13.43;40.60
7832;BME280;3961;42.058;25.586;2023-03-18T14:21:05;63706.00;;;13.19;41.20
7832;BME280;3961;42.058;25.586;2023-03-18T14:24:00;63729.75;;;13.40;41.59
7832;BME280;3961;42.058;25.586;2023-03-18T14:26:27;63706.25;;;13.22;41.69
7832;BME280;3961;42.058;25.586;2023-03-18T14:41:52;63691.38;;;13.11;41.44
7832;BME280;3961;42.058;25.586;2023-03-18T14:45:11;63673.78;;;12.93;41.68
7832;BME280;3961;42.058;25.586;2023-03-18T14:48:05;63672.97;;;12.90;41.45
7832;BME280;3961;42.058;25.586;2023-03-18T14:50:49;63681.78;;;12.93;41.89
7832;BME280;3961;42.058;25.586;2023-03-18T14:55:53;63683.41;;;12.99;41.80
7832;BME280;3961;42.058;25.586;2023-03-18T14:58:22;63687.56;;;12.98;42.07
7832;BME280;3961;42.058;25.586;2023-03-18T15:01:07;63672.41;;;12.90;42.41
7832;BME280;3961;42.058;25.586;2023-03-18T15:03:37;63673.22;;;12.93;42.86
7832;BME280;3961;42.058;25.586;2023-03-18T15:06:04;63660.22;;;12.79;43.58
7832;BME280;3961;42.058;25.586;2023-03-18T15:08:36;63664.88;;;12.83;42.56
7832;BME280;3961;42.058;25.586;2023-03-18T15:11:04;63643.47;;;12.64;42.85
7832;BME280;3961;42.058;25.586;2023-03-18T15:13:31;63628.06;;;12.53;42.80
7832;BME280;3961;42.058;25.586;2023-03-18T15:15:57;63634.41;;;12.59;42.51
7832;BME280;3961;42.058;25.586;2023-03-18T15:18:30;63600.03;;;12.26;43.83
7832;BME280;3961;42.058;25.586;2023-03-18T15:21:16;63600.03;;;12.26;44.20
7832;BME280;3961;42.058;25.586;2023-03-18T15:23:51;63587.75;;;12.08;43.94
7832;BME280;3961;42.058;25.586;2023-03-18T15:26:20;63586.38;;;12.17;43.54